createdAt,value
2022-09-12T00:00:07.037Z,101082.38
2022-09-12T00:02:33.443Z,101082.19
2022-09-12T00:04:59.787Z,101074.31
2022-09-12T00:07:26.157Z,101084.25
2022-09-12T00:09:52.516Z,101077.25
2022-09-12T00:12:20.288Z,101066.91
2022-09-12T00:14:46.646Z,101071.34
2022-09-12T00:17:12.985Z,101065.56
2022-09-12T00:19:39.402Z,101072.66
2022-09-12T00:22:05.776Z,101073.13
2022-09-12T00:24:32.279Z,101075.38
2022-09-12T00:26:58.644Z,101075.00
2022-09-12T00:29:26.377Z,101066.50
2022-09-12T00:31:52.809Z,101077.75
2022-09-12T00:34:19.166Z,101066.66
2022-09-12T00:36:45.526Z,101074.56
2022-09-12T00:39:14.963Z,101070.03
2022-09-12T00:41:41.314Z,101072.06
2022-09-12T00:44:41.237Z,101067.03
2022-09-12T00:47:16.164Z,101069.16
2022-09-12T00:49:47.624Z,101067.56
2022-09-12T00:52:19.138Z,101063.03
2022-09-12T00:54:49.742Z,101065.00
2022-09-12T00:57:17.953Z,101059.75
2022-09-12T00:59:50.061Z,101062.00
2022-09-12T01:02:18.521Z,101061.09
2022-09-12T01:04:45.271Z,101056.94
2022-09-12T01:07:12.628Z,101049.06
2022-09-12T01:09:40.499Z,101052.34
2022-09-12T01:12:06.968Z,101059.31
2022-09-12T01:14:34.889Z,101053.28
2022-09-12T01:17:01.656Z,101046.22
2022-09-12T01:20:05.502Z,101053.59
2022-09-12T01:22:54.581Z,101043.94
2022-09-12T01:25:28.660Z,101051.72
2022-09-12T01:28:21.244Z,101047.84
2022-09-12T01:30:54.049Z,101043.59
2022-09-12T01:33:39.776Z,101047.38
2022-09-12T01:36:24.639Z,101051.34
2022-09-12T01:38:58.731Z,101041.97
2022-09-12T01:41:29.770Z,101040.03
2022-09-12T01:44:03.869Z,101039.41
2022-09-12T01:46:36.345Z,101032.19
2022-09-12T01:49:09.060Z,101035.13
2022-09-12T01:51:39.711Z,101031.88
2022-09-12T01:54:09.746Z,101034.34
2022-09-12T01:56:39.866Z,101033.66
2022-09-12T01:59:10.963Z,101023.00
2022-09-12T02:01:45.776Z,101026.28
2022-09-12T02:04:15.509Z,101017.06
2022-09-12T02:06:48.910Z,101021.53
2022-09-12T02:09:21.060Z,101017.94
2022-09-12T02:11:49.908Z,101011.38
2022-09-12T02:14:21.408Z,101011.44
2022-09-12T02:16:54.342Z,101008.94
2022-09-12T02:19:23.752Z,101017.16
2022-09-12T02:21:53.776Z,101006.94
2022-09-12T02:24:21.966Z,101012.38
2022-09-12T02:26:54.531Z,101016.34
2022-09-12T02:29:20.925Z,101015.34
2022-09-12T02:31:54.147Z,101011.69
2022-09-12T02:34:32.095Z,101010.03
2022-09-12T02:37:06.685Z,101014.00
2022-09-12T02:39:33.602Z,101010.03
2022-09-12T02:42:02.245Z,101005.88
2022-09-12T02:44:30.504Z,101004.97
2022-09-12T02:47:02.275Z,101000.34
2022-09-12T02:49:28.668Z,100999.84
2022-09-12T02:51:55.539Z,100994.84
2022-09-12T02:54:22.047Z,100991.88
2022-09-12T02:56:48.395Z,100987.97
2022-09-12T02:59:17.760Z,100987.94
2022-09-12T03:02:06.650Z,100992.69
2022-09-12T03:04:53.377Z,100988.09
2022-09-12T03:07:33.204Z,100998.63
2022-09-12T03:10:05.471Z,100994.34
2022-09-12T03:12:44.071Z,100987.28
2022-09-12T03:15:25.339Z,100980.34
2022-09-12T03:18:05.899Z,100988.25
2022-09-12T03:20:44.728Z,100983.50
2022-09-12T03:23:18.965Z,100982.13
2022-09-12T03:25:51.447Z,100995.13
2022-09-12T03:28:20.055Z,100985.63
2022-09-12T03:30:48.354Z,100988.47
2022-09-12T03:33:17.932Z,100989.28
2022-09-12T03:35:44.920Z,100993.72
2022-09-12T03:38:11.356Z,100994.44
2022-09-12T03:40:38.283Z,100987.25
2022-09-12T03:43:05.754Z,100991.25
2022-09-12T03:45:32.415Z,100992.72
2022-09-12T03:47:59.428Z,100996.50
2022-09-12T03:50:27.299Z,100997.03
2022-09-12T03:52:53.865Z,100999.41
2022-09-12T03:55:20.278Z,100995.94
2022-09-12T03:57:46.619Z,100986.97
2022-09-12T04:00:17.676Z,100984.00
2022-09-12T04:02:46.303Z,100982.59
2022-09-12T04:05:12.789Z,100986.28
2022-09-12T04:07:40.479Z,100992.72
2022-09-12T04:10:09.483Z,100990.50
2022-09-12T04:12:36.015Z,100993.69
2022-09-12T04:15:02.543Z,100988.09
2022-09-12T04:17:28.902Z,100991.03
2022-09-12T04:19:55.257Z,100993.91
2022-09-12T04:22:21.623Z,101001.03
2022-09-12T04:24:49.324Z,100995.31
2022-09-12T04:27:15.718Z,100987.34
2022-09-12T04:29:42.074Z,100997.56
2022-09-12T04:32:08.420Z,101000.84
2022-09-12T04:34:34.907Z,100993.22
2022-09-12T04:37:01.271Z,100993.81
2022-09-12T04:39:27.617Z,100995.66
2022-09-12T04:41:55.335Z,100995.13
2022-09-12T04:44:21.961Z,100993.91
2022-09-12T04:46:48.412Z,100993.56
2022-09-12T04:49:15.588Z,100999.81
2022-09-12T04:51:42.790Z,100997.28
2022-09-12T04:54:12.130Z,100996.84
2022-09-12T04:56:39.783Z,100992.03
2022-09-12T04:59:08.132Z,100996.03
2022-09-12T05:01:35.187Z,100995.91
2022-09-12T05:04:02.086Z,100995.22
2022-09-12T05:06:30.573Z,100989.06
2022-09-12T05:08:57.541Z,100999.84
2022-09-12T05:11:36.853Z,101003.06
2022-09-12T05:14:13.968Z,101014.81
2022-09-12T05:16:40.355Z,101013.94
2022-09-12T05:19:06.840Z,101006.16
2022-09-12T05:21:33.269Z,101014.81
2022-09-12T05:23:59.668Z,101009.84
2022-09-12T05:26:26.589Z,101009.13
2022-09-12T05:28:54.053Z,101013.06
2022-09-12T05:31:23.584Z,101013.66
2022-09-12T05:33:51.915Z,101014.41
2022-09-12T05:36:19.940Z,101013.81
2022-09-12T05:38:47.117Z,101015.03
2022-09-12T05:41:18.958Z,101006.78
2022-09-12T05:43:47.625Z,101008.47
2022-09-12T05:46:16.602Z,101009.28
2022-09-12T05:48:45.760Z,101015.28
2022-09-12T05:51:14.471Z,101010.84
2022-09-12T05:53:41.324Z,101007.88
2022-09-12T05:56:10.280Z,101012.00
2022-09-12T05:58:39.229Z,101014.81
2022-09-12T06:01:06.736Z,101005.59
2022-09-12T06:03:33.361Z,101011.00
2022-09-12T06:06:03.905Z,101005.81
2022-09-12T06:08:30.880Z,101003.34
2022-09-12T06:11:02.372Z,101012.41
2022-09-12T06:13:30.724Z,101011.25
2022-09-12T06:16:02.649Z,101012.91
2022-09-12T06:18:29.000Z,101012.91
2022-09-12T06:20:55.372Z,101006.47
2022-09-12T06:23:24.602Z,101008.63
2022-09-12T06:25:50.994Z,101006.78
2022-09-12T06:28:17.372Z,101003.16
2022-09-12T06:30:43.750Z,101003.84
2022-09-12T06:33:10.138Z,101006.44
2022-09-12T06:35:37.019Z,101003.41
2022-09-12T06:38:03.732Z,101003.94
2022-09-12T06:40:31.622Z,100993.50
2022-09-12T06:42:57.991Z,100997.66
2022-09-12T06:45:24.418Z,100997.25
2022-09-12T06:47:50.778Z,100992.53
2022-09-12T06:50:17.411Z,100999.63
2022-09-12T06:52:43.747Z,100989.00
2022-09-12T06:55:10.282Z,100990.47
2022-09-12T06:57:37.965Z,100995.25
2022-09-12T07:00:05.494Z,100989.09
2022-09-12T07:02:31.896Z,100993.81
2022-09-12T07:04:58.340Z,100992.72
2022-09-12T07:07:24.688Z,100994.00
2022-09-12T07:09:51.043Z,100997.13
2022-09-12T07:12:17.448Z,100997.03
2022-09-12T07:14:45.138Z,101004.88
2022-09-12T07:17:11.547Z,101005.56
2022-09-12T07:19:37.931Z,101005.28
2022-09-12T07:22:04.330Z,101003.38
2022-09-12T07:24:30.695Z,100998.47
2022-09-12T07:26:57.038Z,101002.84
2022-09-12T07:29:36.642Z,100995.84
2022-09-12T07:32:06.011Z,100998.16
2022-09-12T07:34:32.687Z,100993.34
2022-09-12T07:36:59.060Z,100997.88
2022-09-12T07:39:25.427Z,100996.41
2022-09-12T07:41:51.788Z,100993.03
2022-09-12T07:44:18.183Z,100994.00
2022-09-12T07:46:44.552Z,100999.47
2022-09-12T07:49:12.968Z,100996.50
2022-09-12T07:51:39.315Z,100996.41
2022-09-12T07:54:07.734Z,101006.16
2022-09-12T07:56:38.730Z,101004.06
2022-09-12T07:59:05.651Z,100999.06
2022-09-12T08:01:32.299Z,101008.94
2022-09-12T08:04:00.034Z,101009.19
2022-09-12T08:06:29.006Z,101007.88
2022-09-12T08:08:57.264Z,101014.00
2022-09-12T08:11:25.120Z,101013.75
2022-09-12T08:13:55.603Z,101013.13
2022-09-12T08:16:24.743Z,101004.84
2022-09-12T08:18:51.364Z,101002.28
2022-09-12T08:21:19.214Z,101007.09
2022-09-12T08:23:47.853Z,101010.03
2022-09-12T08:26:14.388Z,100999.41
2022-09-12T08:28:44.718Z,101002.41
2022-09-12T08:31:13.199Z,100998.94
2022-09-12T08:33:39.826Z,100996.00
2022-09-12T08:36:09.794Z,100998.16
2022-09-12T08:38:37.729Z,101000.66
2022-09-12T08:41:11.807Z,101000.53
2022-09-12T08:43:56.116Z,100994.84
2022-09-12T08:46:31.444Z,101000.56
2022-09-12T08:49:00.539Z,100998.97
2022-09-12T08:51:28.959Z,101005.91
2022-09-12T08:53:57.177Z,101001.88
2022-09-12T08:56:30.995Z,101001.19
2022-09-12T08:58:58.065Z,100996.03
2022-09-12T09:01:30.699Z,101009.25
2022-09-12T09:04:13.276Z,101004.31
2022-09-12T09:07:07.654Z,100998.00
2022-09-12T09:09:44.657Z,100990.53
2022-09-12T09:12:20.676Z,100988.09
2022-09-12T09:15:02.549Z,100979.25
2022-09-12T09:17:33.363Z,100979.56
2022-09-12T09:20:05.587Z,100974.47
2022-09-12T09:22:41.179Z,100972.41
2022-09-12T09:25:15.022Z,100971.72
2022-09-12T09:27:49.084Z,100969.28
2022-09-12T09:30:17.565Z,100974.75
2022-09-12T09:32:47.590Z,100967.56
2022-09-12T09:35:17.301Z,100972.00
2022-09-12T09:37:58.628Z,100963.25
2022-09-12T09:40:30.861Z,100957.16
2022-09-12T09:43:05.240Z,100963.84
2022-09-12T09:45:31.624Z,100956.28
2022-09-12T09:48:00.912Z,100956.44
2022-09-12T09:50:27.715Z,100955.28
2022-09-12T09:52:57.618Z,100957.16
2022-09-12T09:55:29.045Z,100945.78
2022-09-12T09:57:55.424Z,100948.69
2022-09-12T10:00:26.982Z,100948.03
2022-09-12T10:03:00.811Z,100942.97
2022-09-12T10:05:27.362Z,100942.84
2022-09-12T10:07:53.850Z,100943.13
2022-09-12T10:10:20.923Z,100941.41
2022-09-12T10:12:47.282Z,100940.22
2022-09-12T10:15:20.109Z,100936.66
2022-09-12T10:17:49.443Z,100944.06
2022-09-12T10:20:33.787Z,100938.22
2022-09-12T10:23:01.958Z,100936.81
2022-09-12T10:25:28.813Z,100935.31
2022-09-12T10:27:59.231Z,100930.97
2022-09-12T10:30:27.205Z,100937.19
2022-09-12T10:32:59.183Z,100936.25
2022-09-12T10:35:29.484Z,100932.16
2022-09-12T10:37:59.755Z,100931.59
2022-09-12T10:40:28.253Z,100927.69
2022-09-12T10:42:57.335Z,100928.22
2022-09-12T10:45:27.400Z,100930.44
2022-09-12T10:47:56.523Z,100927.25
2022-09-12T10:50:26.083Z,100920.22
2022-09-12T10:52:52.656Z,100923.75
2022-09-12T10:55:28.056Z,100914.94
2022-09-12T10:58:18.104Z,100919.53
2022-09-12T11:00:52.544Z,100913.00
2022-09-12T11:03:23.749Z,100911.31
2022-09-12T11:05:54.530Z,100909.16
2022-09-12T11:08:38.083Z,100910.56
2022-09-12T11:11:10.543Z,100902.25
2022-09-12T11:13:58.374Z,100902.25
2022-09-12T11:16:32.253Z,100905.19
2022-09-12T11:19:12.797Z,100911.44
2022-09-12T11:21:52.427Z,100904.28
2022-09-12T11:24:33.799Z,100892.19
2022-09-12T11:27:11.938Z,100901.75
2022-09-12T11:29:48.484Z,100892.25
2022-09-12T11:32:42.936Z,100894.47
2022-09-12T11:35:19.404Z,100887.06
2022-09-12T11:38:09.644Z,100889.34
2022-09-12T11:40:42.220Z,100882.34
2022-09-12T11:43:29.178Z,100879.47
2022-09-12T11:45:59.189Z,100883.34
2022-09-12T11:48:38.236Z,100880.88
2022-09-12T11:51:15.795Z,100875.78
2022-09-12T11:53:44.369Z,100868.59
2022-09-12T11:56:16.926Z,100874.84
2022-09-12T11:58:46.963Z,100872.03
2022-09-12T12:01:17.604Z,100874.63
2022-09-12T12:03:46.808Z,100866.06
2022-09-12T12:06:18.071Z,100872.00
2022-09-12T12:08:46.245Z,100867.31
2022-09-12T12:11:14.625Z,100872.28
2022-09-12T12:13:46.861Z,100864.09
2022-09-12T12:16:18.165Z,100858.88
2022-09-12T12:18:45.358Z,100863.56
2022-09-12T12:21:35.036Z,100859.59
2022-09-12T12:24:20.606Z,100863.91
2022-09-12T12:26:59.088Z,100862.06
2022-09-12T12:29:44.159Z,100862.59
2022-09-12T12:32:26.869Z,100860.69
2022-09-12T12:35:38.562Z,100862.13
2022-09-12T12:38:27.317Z,100853.97
2022-09-12T12:40:54.141Z,100859.13
2022-09-12T12:43:31.684Z,100847.22
2022-09-12T12:46:07.655Z,100851.28
2022-09-12T12:49:03.838Z,100842.59
2022-09-12T12:51:45.400Z,100847.34
2022-09-12T12:54:31.326Z,100841.09
2022-09-12T12:57:04.691Z,100835.22
2022-09-12T12:59:31.353Z,100828.34
2022-09-12T13:01:59.768Z,100826.06
2022-09-12T13:04:31.336Z,100820.63
2022-09-12T13:07:07.212Z,100825.09
2022-09-12T13:09:39.544Z,100815.16
2022-09-12T13:12:09.772Z,100816.47
2022-09-12T13:14:48.912Z,100801.50
2022-09-12T13:17:21.890Z,100815.53
2022-09-12T13:19:49.741Z,100815.31
2022-09-12T13:22:16.263Z,100803.34
2022-09-12T13:24:45.044Z,100811.09
2022-09-12T13:27:18.572Z,100805.44
2022-09-12T13:29:45.013Z,100800.47
2022-09-12T13:32:11.447Z,100797.00
2022-09-12T13:34:52.920Z,100792.03
2022-09-12T13:37:42.615Z,100791.88
2022-09-12T13:40:27.343Z,100790.19
2022-09-12T13:43:12.548Z,100786.25
2022-09-12T13:45:39.268Z,100772.88
2022-09-12T13:48:08.092Z,100764.09
2022-09-12T13:50:41.202Z,100772.25
2022-09-12T13:53:14.291Z,100765.59
2022-09-12T13:55:45.452Z,100766.13
2022-09-12T13:58:21.948Z,100763.22
2022-09-12T14:01:01.316Z,100751.03
2022-09-12T14:03:29.591Z,100740.19
2022-09-12T14:05:57.243Z,100744.69
2022-09-12T14:08:23.963Z,100748.63
2022-09-12T14:10:51.717Z,100739.31
2022-09-12T14:13:20.606Z,100733.13
2022-09-12T14:15:48.958Z,100739.97
2022-09-12T14:18:23.659Z,100725.72
2022-09-12T14:20:51.577Z,100731.06
2022-09-12T14:23:21.172Z,100724.22
2022-09-12T14:25:48.888Z,100730.25
2022-09-12T14:28:21.527Z,100731.31
2022-09-12T14:31:01.316Z,100723.19
2022-09-12T14:33:28.285Z,100723.69
2022-09-12T14:36:09.890Z,100723.00
2022-09-12T14:38:40.295Z,100720.44
2022-09-12T14:41:09.240Z,100714.69
2022-09-12T14:43:41.114Z,100721.00
2022-09-12T14:46:16.875Z,100706.31
2022-09-12T14:48:47.596Z,100704.25
2022-09-12T14:51:20.976Z,100711.88
2022-09-12T14:53:47.944Z,100705.66
2022-09-12T14:56:14.517Z,100697.00
2022-09-12T14:58:42.585Z,100686.41
2022-09-12T15:01:23.740Z,100699.97
2022-09-12T15:03:52.405Z,100688.09
2022-09-12T15:06:23.394Z,100692.31
2022-09-12T15:08:49.959Z,100691.66
2022-09-12T15:11:16.308Z,100689.59
2022-09-12T15:13:44.017Z,100684.81
2022-09-12T15:16:11.847Z,100684.19
2022-09-12T15:18:38.347Z,100685.41
2022-09-12T15:21:06.923Z,100675.75
2022-09-12T15:23:36.750Z,100676.72
2022-09-12T15:26:03.707Z,100686.47
2022-09-12T15:28:31.382Z,100673.09
2022-09-12T15:31:05.554Z,100674.59
2022-09-12T15:33:31.918Z,100674.44
2022-09-12T15:35:58.306Z,100670.69
2022-09-12T15:38:26.754Z,100668.41
2022-09-12T15:40:53.845Z,100671.91
2022-09-12T15:43:20.931Z,100667.94
2022-09-12T15:45:48.432Z,100668.06
2022-09-12T15:48:16.094Z,100663.38
2022-09-12T15:50:42.536Z,100662.22
2022-09-12T15:53:13.912Z,100662.56
2022-09-12T15:55:40.384Z,100663.91
2022-09-12T15:58:07.485Z,100652.00
2022-09-12T16:00:33.972Z,100656.59
2022-09-12T16:03:00.365Z,100657.78
2022-09-12T16:05:28.373Z,100654.78
2022-09-12T16:07:55.212Z,100649.28
2022-09-12T16:10:25.176Z,100645.41
2022-09-12T16:12:51.872Z,100639.28
2022-09-12T16:15:21.475Z,100641.63
2022-09-12T16:17:48.477Z,100646.06
2022-09-12T16:20:15.514Z,100641.34
2022-09-12T16:22:43.204Z,100631.03
2022-09-12T16:25:10.040Z,100639.03
2022-09-12T16:27:37.189Z,100636.44
2022-09-12T16:30:04.881Z,100624.28
2022-09-12T16:32:31.315Z,100632.19
2022-09-12T16:34:57.725Z,100627.28
2022-09-12T16:37:24.122Z,100622.13
2022-09-12T16:39:51.846Z,100617.22
2022-09-12T16:42:18.270Z,100611.91
2022-09-12T16:44:44.785Z,100612.97
2022-09-12T16:47:11.299Z,100606.69
2022-09-12T16:49:37.668Z,100607.41
2022-09-12T16:52:04.356Z,100610.91
2022-09-12T16:54:30.730Z,100611.25
2022-09-12T16:56:58.444Z,100604.63
2022-09-12T16:59:26.048Z,100601.00
2022-09-12T17:01:52.427Z,100597.47
2022-09-12T17:04:22.983Z,100604.44
2022-09-12T17:06:50.180Z,100602.47
2022-09-12T17:09:16.660Z,100591.34
2022-09-12T17:11:43.015Z,100598.84
2022-09-12T17:14:11.455Z,100594.22
2022-09-12T17:16:42.976Z,100599.00
2022-09-12T17:19:14.267Z,100592.84
2022-09-12T17:21:40.728Z,100592.97
2022-09-12T17:24:07.187Z,100579.41
2022-09-12T17:26:33.615Z,100589.50
2022-09-12T17:29:00.139Z,100583.28
2022-09-12T17:31:27.931Z,100587.75
2022-09-12T17:33:56.450Z,100584.63
2022-09-12T17:36:22.818Z,100585.75
2022-09-12T17:38:49.187Z,100581.69
2022-09-12T17:41:17.915Z,100577.16
2022-09-12T17:43:44.899Z,100569.75
2022-09-12T17:46:11.797Z,100561.38
2022-09-12T17:48:39.538Z,100564.88
2022-09-12T17:51:09.614Z,100566.53
2022-09-12T17:53:36.099Z,100567.56
2022-09-12T17:56:03.310Z,100570.16
2022-09-12T17:58:30.224Z,100572.41
2022-09-12T18:01:01.123Z,100570.94
2022-09-12T18:03:27.510Z,100565.78
2022-09-12T18:05:56.411Z,100563.19
2022-09-12T18:08:23.858Z,100565.94
2022-09-12T18:10:51.044Z,100572.53
2022-09-12T18:13:17.488Z,100572.06
2022-09-12T18:15:44.100Z,100567.25
2022-09-12T18:18:10.540Z,100567.19
2022-09-12T18:20:36.932Z,100575.34
2022-09-12T18:23:04.664Z,100577.94
2022-09-12T18:25:31.033Z,100568.38
2022-09-12T18:27:57.391Z,100566.38
2022-09-12T18:30:23.887Z,100567.34
2022-09-12T18:32:51.733Z,100567.75
2022-09-12T18:35:18.121Z,100568.31
2022-09-12T18:37:44.541Z,100558.22
2022-09-12T18:40:12.424Z,100559.97
2022-09-12T18:42:38.811Z,100564.16
2022-09-12T18:45:07.029Z,100561.34
2022-09-12T18:47:33.431Z,100551.75
2022-09-12T18:49:59.848Z,100559.50
2022-09-12T18:52:26.235Z,100557.91
2022-09-12T18:54:52.723Z,100557.59
2022-09-12T18:57:20.430Z,100561.88
2022-09-12T18:59:46.828Z,100557.72
2022-09-12T19:02:15.897Z,100552.47
2022-09-12T19:04:42.482Z,100553.28
2022-09-12T19:07:09.141Z,100553.72
2022-09-12T19:09:35.546Z,100559.88
2022-09-12T19:12:02.536Z,100549.00
2022-09-12T19:14:30.463Z,100545.13
2022-09-12T19:16:56.810Z,100547.50
2022-09-12T19:19:23.186Z,100545.28
2022-09-12T19:21:49.643Z,100529.94
2022-09-12T19:24:16.043Z,100537.22
2022-09-12T19:26:42.508Z,100532.31
2022-09-12T19:29:10.166Z,100539.78
2022-09-12T19:31:38.043Z,100535.44
2022-09-12T19:34:06.727Z,100532.53
2022-09-12T19:36:45.442Z,100533.63
2022-09-12T19:39:12.411Z,100524.78
2022-09-12T19:41:38.821Z,100523.72
2022-09-12T19:44:05.342Z,100513.09
2022-09-12T19:46:32.050Z,100511.91
2022-09-12T19:48:59.793Z,100511.84
2022-09-12T19:51:26.174Z,100508.50
2022-09-12T19:53:53.148Z,100505.56
2022-09-12T19:56:19.583Z,100509.94
2022-09-12T19:58:50.891Z,100510.22
2022-09-12T20:01:22.177Z,100503.84
2022-09-12T20:03:48.544Z,100501.50
2022-09-12T20:06:17.680Z,100503.69
2022-09-12T20:08:44.923Z,100504.97
2022-09-12T20:11:12.895Z,100491.34
2022-09-12T20:13:39.679Z,100489.34
2022-09-12T20:16:07.092Z,100479.84
2022-09-12T20:18:33.654Z,100479.38
2022-09-12T20:21:07.831Z,100476.84
2022-09-12T20:23:35.795Z,100482.19
2022-09-12T20:26:02.161Z,100482.09
2022-09-12T20:28:28.540Z,100474.72
2022-09-12T20:31:00.427Z,100476.03
2022-09-12T20:33:27.818Z,100483.13
2022-09-12T20:36:01.432Z,100478.22
2022-09-12T20:38:27.781Z,100473.03
2022-09-12T20:40:55.698Z,100471.03
2022-09-12T20:43:22.239Z,100469.81
2022-09-12T20:45:48.587Z,100465.44
2022-09-12T20:48:14.967Z,100464.78
2022-09-12T20:50:41.352Z,100467.97
2022-09-12T20:53:07.712Z,100462.09
2022-09-12T20:55:34.100Z,100459.00
2022-09-12T20:58:01.955Z,100462.34
2022-09-12T21:00:28.316Z,100446.03
2022-09-12T21:02:54.717Z,100437.78
2022-09-12T21:05:21.111Z,100433.47
2022-09-12T21:07:47.540Z,100435.59
2022-09-12T21:10:14.132Z,100427.28
2022-09-12T21:12:40.581Z,100418.41
2022-09-12T21:15:09.800Z,100412.66
2022-09-12T21:17:36.206Z,100414.75
2022-09-12T21:20:02.598Z,100409.56
2022-09-12T21:22:29.744Z,100411.22
2022-09-12T21:24:56.098Z,100403.06
2022-09-12T21:27:22.455Z,100397.09
2022-09-12T21:29:48.775Z,100387.66
2022-09-12T21:32:16.519Z,100390.38
2022-09-12T21:34:42.907Z,100387.28
2022-09-12T21:37:09.301Z,100384.09
2022-09-12T21:39:35.655Z,100385.31
2022-09-12T21:42:02.091Z,100384.59
2022-09-12T21:44:28.463Z,100385.03
2022-09-12T21:46:54.886Z,100383.66
2022-09-12T21:49:22.568Z,100379.13
2022-09-12T21:51:51.098Z,100371.19
2022-09-12T21:54:17.435Z,100372.69
2022-09-12T21:56:43.864Z,100359.84
2022-09-12T21:59:10.228Z,100372.97
2022-09-12T22:01:36.672Z,100371.53
2022-09-12T22:04:03.327Z,100374.53
2022-09-12T22:06:31.008Z,100377.44
2022-09-12T22:08:57.388Z,100375.78
2022-09-12T22:11:23.793Z,100367.53
2022-09-12T22:13:50.314Z,100371.81
2022-09-12T22:16:16.813Z,100366.81
2022-09-12T22:18:43.261Z,100374.06
2022-09-12T22:21:17.619Z,100364.72
2022-09-12T22:23:45.478Z,100365.50
2022-09-12T22:26:31.388Z,100368.72
2022-09-12T22:28:57.752Z,100362.00
2022-09-12T22:31:24.241Z,100358.28
2022-09-12T22:33:50.663Z,100348.25
2022-09-12T22:36:17.095Z,100346.63
2022-09-12T22:38:44.826Z,100342.00
2022-09-12T22:41:12.078Z,100338.38
2022-09-12T22:43:38.455Z,100343.53
2022-09-12T22:46:06.848Z,100332.75
2022-09-12T22:48:33.311Z,100336.38
2022-09-12T22:50:59.707Z,100336.47
2022-09-12T22:53:26.070Z,100333.94
2022-09-12T22:55:53.851Z,100336.56
2022-09-12T22:58:20.472Z,100336.28
2022-09-12T23:00:47.385Z,100332.84
2022-09-12T23:03:14.025Z,100324.78
2022-09-12T23:05:40.423Z,100320.81
2022-09-12T23:08:06.782Z,100314.88
2022-09-12T23:10:35.093Z,100319.44
2022-09-12T23:13:02.837Z,100309.75
2022-09-12T23:15:29.234Z,100312.47
2022-09-12T23:17:55.608Z,100311.00
2022-09-12T23:20:21.992Z,100307.13
2022-09-12T23:22:48.364Z,100303.00
2022-09-12T23:25:14.877Z,100299.88
2022-09-12T23:27:41.291Z,100302.69
2022-09-12T23:30:10.591Z,100302.69
2022-09-12T23:32:36.989Z,100288.56
2022-09-12T23:35:03.637Z,100291.09
2022-09-12T23:37:30.140Z,100286.47
2022-09-12T23:39:56.544Z,100286.75
2022-09-12T23:42:22.926Z,100281.22
2022-09-12T23:44:49.278Z,100285.75
2022-09-12T23:47:16.982Z,100290.56
2022-09-12T23:49:43.372Z,100286.81
2022-09-12T23:52:09.714Z,100296.66
2022-09-12T23:54:36.056Z,100290.38
2022-09-12T23:57:02.471Z,100298.00
2022-09-12T23:59:28.815Z,100280.78
